sensor_id;sensor_type;location;lat;lon;timestamp;P1;durP1;ratioP1;P2;durP2;ratioP2
39400;SDS011;75540;50.000;7.360;2024-03-17T00:00:00;6.10;;;1.80;;
39400;SDS011;75540;50.000;7.360;2024-03-17T00:02:29;4.82;;;2.42;;
39400;SDS011;75540;50.000;7.360;2024-03-17T00:04:56;3.53;;;2.15;;
39400;SDS011;75540;50.000;7.360;2024-03-17T00:07:24;4.82;;;2.67;;
39400;SDS011;75540;50.000;7.360;2024-03-17T00:09:51;3.90;;;2.47;;
39400;SDS011;75540;50.000;7.360;2024-03-17T00:12:18;2.85;;;2.10;;
39400;SDS011;75540;50.000;7.360;2024-03-17T00:14:44;4.43;;;2.13;;
39400;SDS011;75540;50.000;7.360;2024-03-17T00:17:12;3.33;;;2.30;;
39400;SDS011;75540;50.000;7.360;2024-03-17T00:19:38;4.43;;;2.08;;
39400;SDS011;75540;50.000;7.360;2024-03-17T00:22:06;3.17;;;2.08;;
39400;SDS011;75540;50.000;7.360;2024-03-17T00:24:36;3.78;;;2.08;;
39400;SDS011;75540;50.000;7.360;2024-03-17T00:27:03;3.72;;;3.00;;
39400;SDS011;75540;50.000;7.360;2024-03-17T00:29:29;6.28;;;2.47;;
39400;SDS011;75540;50.000;7.360;2024-03-17T00:31:57;3.00;;;1.83;;
39400;SDS011;75540;50.000;7.360;2024-03-17T00:34:23;3.25;;;2.13;;
39400;SDS011;75540;50.000;7.360;2024-03-17T00:36:51;4.53;;;2.25;;
39400;SDS011;75540;50.000;7.360;2024-03-17T00:39:17;3.47;;;1.95;;
39400;SDS011;75540;50.000;7.360;2024-03-17T00:41:46;4.00;;;2.13;;
39400;SDS011;75540;50.000;7.360;2024-03-17T00:44:12;5.95;;;2.40;;
39400;SDS011;75540;50.000;7.360;2024-03-17T00:46:39;3.05;;;2.00;;
39400;SDS011;75540;50.000;7.360;2024-03-17T00:49:08;5.20;;;2.03;;
39400;SDS011;75540;50.000;7.360;2024-03-17T00:51:36;2.85;;;2.00;;
39400;SDS011;75540;50.000;7.360;2024-03-17T00:54:02;4.95;;;2.70;;
39400;SDS011;75540;50.000;7.360;2024-03-17T00:56:29;4.93;;;3.08;;
39400;SDS011;75540;50.000;7.360;2024-03-17T00:58:57;6.90;;;3.42;;
39400;SDS011;75540;50.000;7.360;2024-03-17T01:01:25;7.80;;;3.58;;
39400;SDS011;75540;50.000;7.360;2024-03-17T01:03:51;6.60;;;3.65;;
39400;SDS011;75540;50.000;7.360;2024-03-17T01:06:18;5.68;;;3.05;;
39400;SDS011;75540;50.000;7.360;2024-03-17T01:08:44;6.22;;;2.60;;
39400;SDS011;75540;50.000;7.360;2024-03-17T01:11:14;4.72;;;2.67;;
39400;SDS011;75540;50.000;7.360;2024-03-17T01:13:42;5.20;;;2.97;;
39400;SDS011;75540;50.000;7.360;2024-03-17T01:16:10;5.18;;;2.40;;
39400;SDS011;75540;50.000;7.360;2024-03-17T01:18:37;4.00;;;2.95;;
39400;SDS011;75540;50.000;7.360;2024-03-17T01:21:05;4.55;;;2.10;;
39400;SDS011;75540;50.000;7.360;2024-03-17T01:23:32;4.18;;;2.35;;
39400;SDS011;75540;50.000;7.360;2024-03-17T01:25:59;4.78;;;2.42;;
39400;SDS011;75540;50.000;7.360;2024-03-17T01:28:25;3.67;;;2.40;;
39400;SDS011;75540;50.000;7.360;2024-03-17T01:30:53;5.18;;;2.40;;
39400;SDS011;75540;50.000;7.360;2024-03-17T01:33:20;5.28;;;2.20;;
39400;SDS011;75540;50.000;7.360;2024-03-17T01:35:48;3.55;;;2.20;;
39400;SDS011;75540;50.000;7.360;2024-03-17T01:38:15;5.03;;;2.28;;
39400;SDS011;75540;50.000;7.360;2024-03-17T01:40:41;3.15;;;1.75;;
39400;SDS011;75540;50.000;7.360;2024-03-17T01:43:09;3.35;;;1.90;;
39400;SDS011;75540;50.000;7.360;2024-03-17T01:45:38;3.35;;;1.98;;
39400;SDS011;75540;50.000;7.360;2024-03-17T01:48:04;2.63;;;1.63;;
39400;SDS011;75540;50.000;7.360;2024-03-17T01:50:39;5.68;;;2.10;;
39400;SDS011;75540;50.000;7.360;2024-03-17T01:53:06;3.72;;;1.95;;
39400;SDS011;75540;50.000;7.360;2024-03-17T01:55:36;3.83;;;1.75;;
39400;SDS011;75540;50.000;7.360;2024-03-17T01:58:04;12.70;;;2.20;;
39400;SDS011;75540;50.000;7.360;2024-03-17T02:00:33;3.42;;;1.70;;
39400;SDS011;75540;50.000;7.360;2024-03-17T02:02:59;4.80;;;2.42;;
39400;SDS011;75540;50.000;7.360;2024-03-17T02:05:27;4.40;;;2.05;;
39400;SDS011;75540;50.000;7.360;2024-03-17T02:07:55;6.38;;;2.53;;
39400;SDS011;75540;50.000;7.360;2024-03-17T02:10:23;5.30;;;2.20;;
39400;SDS011;75540;50.000;7.360;2024-03-17T02:12:51;3.45;;;1.83;;
39400;SDS011;75540;50.000;7.360;2024-03-17T02:15:18;5.03;;;2.20;;
39400;SDS011;75540;50.000;7.360;2024-03-17T02:17:45;8.07;;;2.90;;
39400;SDS011;75540;50.000;7.360;2024-03-17T02:20:12;6.82;;;2.78;;
39400;SDS011;75540;50.000;7.360;2024-03-17T02:22:41;6.32;;;2.58;;
39400;SDS011;75540;50.000;7.360;2024-03-17T02:25:08;12.25;;;4.65;;
39400;SDS011;75540;50.000;7.360;2024-03-17T02:27:35;17.98;;;5.68;;
39400;SDS011;75540;50.000;7.360;2024-03-17T02:30:02;16.13;;;5.75;;
39400;SDS011;75540;50.000;7.360;2024-03-17T02:32:30;8.80;;;2.60;;
39400;SDS011;75540;50.000;7.360;2024-03-17T02:34:57;5.97;;;2.47;;
39400;SDS011;75540;50.000;7.360;2024-03-17T02:37:23;9.20;;;4.45;;
39400;SDS011;75540;50.000;7.360;2024-03-17T02:39:52;17.65;;;7.40;;
39400;SDS011;75540;50.000;7.360;2024-03-17T02:42:18;21.58;;;10.10;;
39400;SDS011;75540;50.000;7.360;2024-03-17T02:44:46;18.45;;;9.50;;
39400;SDS011;75540;50.000;7.360;2024-03-17T02:47:13;15.38;;;7.30;;
39400;SDS011;75540;50.000;7.360;2024-03-17T02:49:41;12.43;;;5.40;;
39400;SDS011;75540;50.000;7.360;2024-03-17T02:52:09;7.80;;;3.58;;
39400;SDS011;75540;50.000;7.360;2024-03-17T02:54:38;14.30;;;6.45;;
39400;SDS011;75540;50.000;7.360;2024-03-17T02:57:07;9.95;;;4.53;;
39400;SDS011;75540;50.000;7.360;2024-03-17T02:59:34;8.77;;;4.68;;
39400;SDS011;75540;50.000;7.360;2024-03-17T03:02:02;13.77;;;7.18;;
39400;SDS011;75540;50.000;7.360;2024-03-17T03:04:31;18.58;;;7.32;;
39400;SDS011;75540;50.000;7.360;2024-03-17T03:06:59;10.52;;;5.25;;
39400;SDS011;75540;50.000;7.360;2024-03-17T03:09:26;10.07;;;4.88;;
39400;SDS011;75540;50.000;7.360;2024-03-17T03:11:57;9.90;;;5.00;;
39400;SDS011;75540;50.000;7.360;2024-03-17T03:14:27;6.45;;;4.10;;
39400;SDS011;75540;50.000;7.360;2024-03-17T03:16:55;5.47;;;3.15;;
39400;SDS011;75540;50.000;7.360;2024-03-17T03:19:22;7.47;;;2.63;;
39400;SDS011;75540;50.000;7.360;2024-03-17T03:21:49;4.63;;;2.60;;
39400;SDS011;75540;50.000;7.360;2024-03-17T03:24:17;3.88;;;2.20;;
39400;SDS011;75540;50.000;7.360;2024-03-17T03:26:44;6.50;;;3.80;;
39400;SDS011;75540;50.000;7.360;2024-03-17T03:29:11;5.05;;;3.10;;
39400;SDS011;75540;50.000;7.360;2024-03-17T03:31:41;8.63;;;4.30;;
39400;SDS011;75540;50.000;7.360;2024-03-17T03:34:08;4.75;;;2.47;;
39400;SDS011;75540;50.000;7.360;2024-03-17T03:36:39;3.95;;;2.05;;
39400;SDS011;75540;50.000;7.360;2024-03-17T03:39:07;5.82;;;1.88;;
39400;SDS011;75540;50.000;7.360;2024-03-17T03:41:37;5.47;;;2.15;;
39400;SDS011;75540;50.000;7.360;2024-03-17T03:44:04;5.38;;;2.08;;
39400;SDS011;75540;50.000;7.360;2024-03-17T03:46:32;5.13;;;1.95;;
39400;SDS011;75540;50.000;7.360;2024-03-17T03:49:00;3.58;;;1.88;;
39400;SDS011;75540;50.000;7.360;2024-03-17T03:51:28;3.08;;;1.98;;
39400;SDS011;75540;50.000;7.360;2024-03-17T03:53:55;3.28;;;1.77;;
39400;SDS011;75540;50.000;7.360;2024-03-17T03:56:22;4.95;;;2.25;;
39400;SDS011;75540;50.000;7.360;2024-03-17T03:58:51;4.30;;;1.98;;
39400;SDS011;75540;50.000;7.360;2024-03-17T04:01:18;3.75;;;1.60;;
39400;SDS011;75540;50.000;7.360;2024-03-17T04:03:48;3.35;;;1.58;;
39400;SDS011;75540;50.000;7.360;2024-03-17T04:06:17;2.97;;;2.03;;
39400;SDS011;75540;50.000;7.360;2024-03-17T04:08:44;3.72;;;1.50;;
39400;SDS011;75540;50.000;7.360;2024-03-17T04:11:11;2.75;;;1.70;;
39400;SDS011;75540;50.000;7.360;2024-03-17T04:13:38;2.95;;;1.45;;
39400;SDS011;75540;50.000;7.360;2024-03-17T04:16:07;3.05;;;1.67;;
39400;SDS011;75540;50.000;7.360;2024-03-17T04:18:35;3.30;;;1.58;;
39400;SDS011;75540;50.000;7.360;2024-03-17T04:21:04;4.18;;;1.95;;
39400;SDS011;75540;50.000;7.360;2024-03-17T04:23:34;3.85;;;1.73;;
39400;SDS011;75540;50.000;7.360;2024-03-17T04:26:03;2.90;;;1.80;;
39400;SDS011;75540;50.000;7.360;2024-03-17T04:28:33;2.83;;;1.65;;
39400;SDS011;75540;50.000;7.360;2024-03-17T04:31:04;4.43;;;2.05;;
39400;SDS011;75540;50.000;7.360;2024-03-17T04:33:32;4.22;;;1.70;;
39400;SDS011;75540;50.000;7.360;2024-03-17T04:36:00;3.88;;;1.50;;
39400;SDS011;75540;50.000;7.360;2024-03-17T04:38:28;1.92;;;1.25;;
39400;SDS011;75540;50.000;7.360;2024-03-17T04:40:57;2.75;;;1.70;;
39400;SDS011;75540;50.000;7.360;2024-03-17T04:43:30;3.28;;;1.80;;
39400;SDS011;75540;50.000;7.360;2024-03-17T04:45:59;4.57;;;1.60;;
39400;SDS011;75540;50.000;7.360;2024-03-17T04:48:29;3.47;;;1.60;;
39400;SDS011;75540;50.000;7.360;2024-03-17T04:51:22;3.40;;;2.03;;
39400;SDS011;75540;50.000;7.360;2024-03-17T04:53:50;3.25;;;1.80;;
39400;SDS011;75540;50.000;7.360;2024-03-17T04:56:18;3.78;;;2.17;;
39400;SDS011;75540;50.000;7.360;2024-03-17T04:58:45;4.00;;;1.70;;
39400;SDS011;75540;50.000;7.360;2024-03-17T05:01:13;4.78;;;2.13;;
39400;SDS011;75540;50.000;7.360;2024-03-17T05:03:40;8.55;;;2.10;;
39400;SDS011;75540;50.000;7.360;2024-03-17T05:06:07;4.15;;;2.42;;
39400;SDS011;75540;50.000;7.360;2024-03-17T05:08:34;2.83;;;1.88;;
39400;SDS011;75540;50.000;7.360;2024-03-17T05:11:02;4.00;;;1.77;;
39400;SDS011;75540;50.000;7.360;2024-03-17T05:13:35;3.90;;;1.95;;
39400;SDS011;75540;50.000;7.360;2024-03-17T05:16:04;4.38;;;2.50;;
39400;SDS011;75540;50.000;7.360;2024-03-17T05:18:32;6.80;;;2.42;;
39400;SDS011;75540;50.000;7.360;2024-03-17T05:20:59;4.85;;;2.15;;
39400;SDS011;75540;50.000;7.360;2024-03-17T05:23:27;3.72;;;2.08;;
39400;SDS011;75540;50.000;7.360;2024-03-17T05:25:54;4.80;;;2.47;;
39400;SDS011;75540;50.000;7.360;2024-03-17T05:28:22;4.22;;;2.28;;
39400;SDS011;75540;50.000;7.360;2024-03-17T05:30:50;7.25;;;2.45;;
39400;SDS011;75540;50.000;7.360;2024-03-17T05:33:18;5.45;;;2.70;;
39400;SDS011;75540;50.000;7.360;2024-03-17T05:35:50;5.57;;;2.50;;
39400;SDS011;75540;50.000;7.360;2024-03-17T05:38:18;4.80;;;2.45;;
39400;SDS011;75540;50.000;7.360;2024-03-17T05:40:53;5.55;;;2.38;;
39400;SDS011;75540;50.000;7.360;2024-03-17T05:43:21;5.38;;;2.67;;
39400;SDS011;75540;50.000;7.360;2024-03-17T05:45:51;7.78;;;2.97;;
39400;SDS011;75540;50.000;7.360;2024-03-17T05:48:18;5.85;;;2.72;;
39400;SDS011;75540;50.000;7.360;2024-03-17T05:50:46;6.63;;;3.38;;
39400;SDS011;75540;50.000;7.360;2024-03-17T05:53:13;6.32;;;3.17;;
39400;SDS011;75540;50.000;7.360;2024-03-17T05:55:40;6.15;;;3.10;;
39400;SDS011;75540;50.000;7.360;2024-03-17T05:58:08;4.97;;;2.63;;
39400;SDS011;75540;50.000;7.360;2024-03-17T06:00:36;10.85;;;3.60;;
39400;SDS011;75540;50.000;7.360;2024-03-17T06:03:05;6.30;;;2.95;;
39400;SDS011;75540;50.000;7.360;2024-03-17T06:05:33;9.75;;;3.78;;
39400;SDS011;75540;50.000;7.360;2024-03-17T06:08:00;8.98;;;4.50;;
39400;SDS011;75540;50.000;7.360;2024-03-17T06:10:30;8.05;;;3.20;;
39400;SDS011;75540;50.000;7.360;2024-03-17T06:12:57;8.32;;;3.10;;
39400;SDS011;75540;50.000;7.360;2024-03-17T06:15:25;7.07;;;3.38;;
39400;SDS011;75540;50.000;7.360;2024-03-17T06:17:53;8.45;;;3.10;;
39400;SDS011;75540;50.000;7.360;2024-03-17T06:20:22;6.65;;;3.20;;
39400;SDS011;75540;50.000;7.360;2024-03-17T06:22:52;7.05;;;3.72;;
39400;SDS011;75540;50.000;7.360;2024-03-17T06:25:19;5.75;;;3.30;;
39400;SDS011;75540;50.000;7.360;2024-03-17T06:27:49;6.68;;;3.72;;
39400;SDS011;75540;50.000;7.360;2024-03-17T06:30:16;7.53;;;3.88;;
39400;SDS011;75540;50.000;7.360;2024-03-17T06:32:45;7.03;;;3.13;;
39400;SDS011;75540;50.000;7.360;2024-03-17T06:35:13;7.03;;;3.35;;
39400;SDS011;75540;50.000;7.360;2024-03-17T06:37:42;9.77;;;3.78;;
39400;SDS011;75540;50.000;7.360;2024-03-17T06:40:10;6.88;;;3.70;;
39400;SDS011;75540;50.000;7.360;2024-03-17T06:42:40;10.30;;;4.43;;
39400;SDS011;75540;50.000;7.360;2024-03-17T06:45:08;8.23;;;4.18;;
39400;SDS011;75540;50.000;7.360;2024-03-17T06:47:35;6.03;;;4.25;;
39400;SDS011;75540;50.000;7.360;2024-03-17T06:50:03;7.05;;;3.75;;
39400;SDS011;75540;50.000;7.360;2024-03-17T06:52:32;6.13;;;3.03;;
39400;SDS011;75540;50.000;7.360;2024-03-17T06:55:01;7.82;;;3.33;;
39400;SDS011;75540;50.000;7.360;2024-03-17T06:57:28;6.03;;;3.55;;
39400;SDS011;75540;50.000;7.360;2024-03-17T06:59:55;7.18;;;3.10;;
39400;SDS011;75540;50.000;7.360;2024-03-17T07:02:23;10.20;;;3.75;;
39400;SDS011;75540;50.000;7.360;2024-03-17T07:04:50;12.50;;;3.97;;
39400;SDS011;75540;50.000;7.360;2024-03-17T07:07:17;11.25;;;4.07;;
39400;SDS011;75540;50.000;7.360;2024-03-17T07:09:46;6.22;;;3.22;;
39400;SDS011;75540;50.000;7.360;2024-03-17T07:12:15;10.05;;;3.67;;
39400;SDS011;75540;50.000;7.360;2024-03-17T07:14:45;5.97;;;3.10;;
39400;SDS011;75540;50.000;7.360;2024-03-17T07:17:12;6.45;;;3.30;;
39400;SDS011;75540;50.000;7.360;2024-03-17T07:19:40;7.45;;;3.10;;
39400;SDS011;75540;50.000;7.360;2024-03-17T07:22:08;7.10;;;3.50;;
39400;SDS011;75540;50.000;7.360;2024-03-17T07:24:35;6.78;;;3.33;;
39400;SDS011;75540;50.000;7.360;2024-03-17T07:27:02;5.95;;;2.90;;
39400;SDS011;75540;50.000;7.360;2024-03-17T07:29:34;7.03;;;3.42;;
39400;SDS011;75540;50.000;7.360;2024-03-17T07:32:01;5.35;;;3.38;;
39400;SDS011;75540;50.000;7.360;2024-03-17T07:34:30;6.40;;;3.10;;
39400;SDS011;75540;50.000;7.360;2024-03-17T07:36:58;5.13;;;2.35;;
39400;SDS011;75540;50.000;7.360;2024-03-17T07:39:28;5.10;;;3.10;;
39400;SDS011;75540;50.000;7.360;2024-03-17T07:41:57;4.57;;;2.50;;
39400;SDS011;75540;50.000;7.360;2024-03-17T07:44:25;5.15;;;2.30;;
39400;SDS011;75540;50.000;7.360;2024-03-17T07:46:55;4.15;;;2.78;;
39400;SDS011;75540;50.000;7.360;2024-03-17T07:49:22;5.72;;;2.10;;
39400;SDS011;75540;50.000;7.360;2024-03-17T07:51:50;4.70;;;2.65;;
39400;SDS011;75540;50.000;7.360;2024-03-17T07:54:17;4.97;;;2.75;;
39400;SDS011;75540;50.000;7.360;2024-03-17T07:56:45;4.80;;;2.30;;
39400;SDS011;75540;50.000;7.360;2024-03-17T07:59:12;5.22;;;3.33;;
39400;SDS011;75540;50.000;7.360;2024-03-17T08:01:43;6.13;;;2.92;;
39400;SDS011;75540;50.000;7.360;2024-03-17T08:04:12;6.38;;;3.40;;
39400;SDS011;75540;50.000;7.360;2024-03-17T08:06:39;7.43;;;3.88;;
39400;SDS011;75540;50.000;7.360;2024-03-17T08:09:07;5.28;;;3.17;;
39400;SDS011;75540;50.000;7.360;2024-03-17T08:11:34;6.10;;;3.25;;
39400;SDS011;75540;50.000;7.360;2024-03-17T08:14:02;8.20;;;3.33;;
39400;SDS011;75540;50.000;7.360;2024-03-17T08:16:31;8.93;;;3.60;;
39400;SDS011;75540;50.000;7.360;2024-03-17T08:19:00;5.72;;;3.05;;
39400;SDS011;75540;50.000;7.360;2024-03-17T08:21:30;8.43;;;3.17;;
39400;SDS011;75540;50.000;7.360;2024-03-17T08:23:57;8.90;;;3.42;;
39400;SDS011;75540;50.000;7.360;2024-03-17T08:26:25;5.97;;;3.03;;
39400;SDS011;75540;50.000;7.360;2024-03-17T08:28:52;5.47;;;3.30;;
39400;SDS011;75540;50.000;7.360;2024-03-17T08:31:19;6.90;;;3.08;;
39400;SDS011;75540;50.000;7.360;2024-03-17T08:33:47;7.70;;;3.20;;
39400;SDS011;75540;50.000;7.360;2024-03-17T08:36:16;6.88;;;3.80;;
39400;SDS011;75540;50.000;7.360;2024-03-17T08:38:46;6.75;;;3.70;;
39400;SDS011;75540;50.000;7.360;2024-03-17T08:41:14;7.93;;;3.95;;
39400;SDS011;75540;50.000;7.360;2024-03-17T08:43:42;6.90;;;2.90;;
39400;SDS011;75540;50.000;7.360;2024-03-17T08:46:10;8.35;;;3.15;;
39400;SDS011;75540;50.000;7.360;2024-03-17T08:48:39;8.82;;;3.67;;
39400;SDS011;75540;50.000;7.360;2024-03-17T08:51:08;5.50;;;3.10;;
39400;SDS011;75540;50.000;7.360;2024-03-17T08:53:36;7.50;;;4.20;;
39400;SDS011;75540;50.000;7.360;2024-03-17T08:56:06;6.18;;;3.30;;
39400;SDS011;75540;50.000;7.360;2024-03-17T08:58:33;8.50;;;3.20;;
39400;SDS011;75540;50.000;7.360;2024-03-17T09:01:04;8.43;;;3.33;;
39400;SDS011;75540;50.000;7.360;2024-03-17T09:03:32;7.47;;;4.25;;
39400;SDS011;75540;50.000;7.360;2024-03-17T09:06:00;9.57;;;3.58;;
39400;SDS011;75540;50.000;7.360;2024-03-17T09:08:27;7.70;;;3.33;;
39400;SDS011;75540;50.000;7.360;2024-03-17T09:10:55;9.27;;;3.80;;
39400;SDS011;75540;50.000;7.360;2024-03-17T09:13:24;7.00;;;3.05;;
39400;SDS011;75540;50.000;7.360;2024-03-17T09:15:52;6.07;;;3.42;;
39400;SDS011;75540;50.000;7.360;2024-03-17T09:18:19;5.00;;;2.95;;
39400;SDS011;75540;50.000;7.360;2024-03-17T09:20:54;7.30;;;3.53;;
39400;SDS011;75540;50.000;7.360;2024-03-17T09:23:22;7.70;;;3.08;;
39400;SDS011;75540;50.000;7.360;2024-03-17T09:25:55;9.35;;;4.05;;
39400;SDS011;75540;50.000;7.360;2024-03-17T09:28:25;6.97;;;3.80;;
39400;SDS011;75540;50.000;7.360;2024-03-17T09:30:52;7.43;;;3.83;;
39400;SDS011;75540;50.000;7.360;2024-03-17T09:33:21;13.30;;;6.35;;
39400;SDS011;75540;50.000;7.360;2024-03-17T09:35:55;6.78;;;3.40;;
39400;SDS011;75540;50.000;7.360;2024-03-17T09:38:23;6.25;;;3.63;;
39400;SDS011;75540;50.000;7.360;2024-03-17T09:40:51;6.78;;;3.20;;
39400;SDS011;75540;50.000;7.360;2024-03-17T09:43:20;7.63;;;3.67;;
39400;SDS011;75540;50.000;7.360;2024-03-17T09:45:49;8.93;;;3.95;;
39400;SDS011;75540;50.000;7.360;2024-03-17T09:48:20;11.60;;;5.25;;
39400;SDS011;75540;50.000;7.360;2024-03-17T09:50:49;7.95;;;4.15;;
39400;SDS011;75540;50.000;7.360;2024-03-17T09:53:21;8.07;;;4.10;;
39400;SDS011;75540;50.000;7.360;2024-03-17T09:55:50;7.85;;;3.90;;
39400;SDS011;75540;50.000;7.360;2024-03-17T09:58:19;6.72;;;3.55;;
39400;SDS011;75540;50.000;7.360;2024-03-17T10:00:46;7.53;;;3.97;;
39400;SDS011;75540;50.000;7.360;2024-03-17T10:03:38;7.95;;;4.15;;
39400;SDS011;75540;50.000;7.360;2024-03-17T10:06:07;7.07;;;3.53;;
39400;SDS011;75540;50.000;7.360;2024-03-17T10:08:41;6.80;;;3.53;;
39400;SDS011;75540;50.000;7.360;2024-03-17T10:11:12;7.60;;;3.28;;
39400;SDS011;75540;50.000;7.360;2024-03-17T10:13:41;11.40;;;4.65;;
39400;SDS011;75540;50.000;7.360;2024-03-17T10:16:17;11.10;;;4.38;;
39400;SDS011;75540;50.000;7.360;2024-03-17T10:18:50;9.25;;;3.97;;
39400;SDS011;75540;50.000;7.360;2024-03-17T10:21:24;10.85;;;4.50;;
39400;SDS011;75540;50.000;7.360;2024-03-17T10:24:04;8.20;;;3.85;;
39400;SDS011;75540;50.000;7.360;2024-03-17T10:26:43;8.32;;;4.38;;
39400;SDS011;75540;50.000;7.360;2024-03-17T10:29:25;10.32;;;4.55;;
39400;SDS011;75540;50.000;7.360;2024-03-17T10:31:55;6.28;;;3.53;;
39400;SDS011;75540;50.000;7.360;2024-03-17T10:34:25;8.40;;;3.97;;
39400;SDS011;75540;50.000;7.360;2024-03-17T10:37:05;8.13;;;4.68;;
39400;SDS011;75540;50.000;7.360;2024-03-17T10:39:37;8.25;;;4.57;;
39400;SDS011;75540;50.000;7.360;2024-03-17T10:42:05;8.82;;;4.57;;
39400;SDS011;75540;50.000;7.360;2024-03-17T10:44:34;8.63;;;3.65;;
39400;SDS011;75540;50.000;7.360;2024-03-17T10:47:03;8.02;;;3.85;;
39400;SDS011;75540;50.000;7.360;2024-03-17T10:49:37;6.22;;;3.55;;
39400;SDS011;75540;50.000;7.360;2024-03-17T10:52:05;7.20;;;3.78;;
39400;SDS011;75540;50.000;7.360;2024-03-17T10:54:37;8.80;;;4.13;;
39400;SDS011;75540;50.000;7.360;2024-03-17T10:57:07;6.75;;;3.75;;
39400;SDS011;75540;50.000;7.360;2024-03-17T10:59:48;9.43;;;5.32;;
39400;SDS011;75540;50.000;7.360;2024-03-17T11:02:23;8.95;;;4.28;;
39400;SDS011;75540;50.000;7.360;2024-03-17T11:04:53;9.65;;;4.85;;
39400;SDS011;75540;50.000;7.360;2024-03-17T11:07:22;5.97;;;4.15;;
39400;SDS011;75540;50.000;7.360;2024-03-17T11:09:51;7.22;;;3.55;;
39400;SDS011;75540;50.000;7.360;2024-03-17T11:12:39;9.48;;;4.32;;
39400;SDS011;75540;50.000;7.360;2024-03-17T11:21:03;8.73;;;4.47;;
39400;SDS011;75540;50.000;7.360;2024-03-17T11:23:36;6.88;;;4.00;;
39400;SDS011;75540;50.000;7.360;2024-03-17T11:26:04;7.57;;;3.78;;
39400;SDS011;75540;50.000;7.360;2024-03-17T11:28:46;10.75;;;5.03;;
39400;SDS011;75540;50.000;7.360;2024-03-17T11:34:31;7.95;;;3.78;;
39400;SDS011;75540;50.000;7.360;2024-03-17T11:37:01;9.90;;;4.85;;
39400;SDS011;75540;50.000;7.360;2024-03-17T11:39:49;11.65;;;4.82;;
39400;SDS011;75540;50.000;7.360;2024-03-17T11:42:21;5.97;;;4.13;;
39400;SDS011;75540;50.000;7.360;2024-03-17T11:44:56;10.68;;;4.65;;
39400;SDS011;75540;50.000;7.360;2024-03-17T11:47:32;10.18;;;4.40;;
39400;SDS011;75540;50.000;7.360;2024-03-17T11:50:03;8.73;;;4.20;;
39400;SDS011;75540;50.000;7.360;2024-03-17T11:52:32;11.10;;;4.10;;
39400;SDS011;75540;50.000;7.360;2024-03-17T11:55:00;7.57;;;4.45;;
39400;SDS011;75540;50.000;7.360;2024-03-17T11:57:26;7.10;;;4.20;;
39400;SDS011;75540;50.000;7.360;2024-03-17T11:59:54;9.95;;;4.43;;
39400;SDS011;75540;50.000;7.360;2024-03-17T12:02:22;9.52;;;4.63;;
39400;SDS011;75540;50.000;7.360;2024-03-17T12:04:51;7.50;;;4.15;;
39400;SDS011;75540;50.000;7.360;2024-03-17T12:07:18;9.82;;;4.40;;
39400;SDS011;75540;50.000;7.360;2024-03-17T12:09:50;9.75;;;4.93;;
39400;SDS011;75540;50.000;7.360;2024-03-17T12:12:18;8.02;;;4.47;;
39400;SDS011;75540;50.000;7.360;2024-03-17T12:14:47;9.60;;;4.95;;
39400;SDS011;75540;50.000;7.360;2024-03-17T12:17:14;8.93;;;4.68;;
39400;SDS011;75540;50.000;7.360;2024-03-17T12:19:46;9.75;;;4.35;;
39400;SDS011;75540;50.000;7.360;2024-03-17T12:22:15;9.43;;;4.63;;
39400;SDS011;75540;50.000;7.360;2024-03-17T12:24:47;9.75;;;4.43;;
39400;SDS011;75540;50.000;7.360;2024-03-17T12:27:17;9.48;;;4.85;;
39400;SDS011;75540;50.000;7.360;2024-03-17T12:29:45;8.18;;;3.85;;
39400;SDS011;75540;50.000;7.360;2024-03-17T12:32:14;8.82;;;4.72;;
39400;SDS011;75540;50.000;7.360;2024-03-17T12:34:42;9.93;;;5.07;;
39400;SDS011;75540;50.000;7.360;2024-03-17T12:37:13;11.68;;;5.30;;
39400;SDS011;75540;50.000;7.360;2024-03-17T12:39:43;8.80;;;4.65;;
39400;SDS011;75540;50.000;7.360;2024-03-17T12:42:11;8.23;;;4.45;;
39400;SDS011;75540;50.000;7.360;2024-03-17T12:44:40;7.60;;;4.15;;
39400;SDS011;75540;50.000;7.360;2024-03-17T12:47:14;10.93;;;4.68;;
39400;SDS011;75540;50.000;7.360;2024-03-17T12:49:45;7.18;;;4.70;;
39400;SDS011;75540;50.000;7.360;2024-03-17T12:52:19;11.68;;;4.90;;
39400;SDS011;75540;50.000;7.360;2024-03-17T12:54:57;8.45;;;4.25;;
39400;SDS011;75540;50.000;7.360;2024-03-17T12:57:40;10.25;;;4.00;;
39400;SDS011;75540;50.000;7.360;2024-03-17T13:00:25;10.48;;;4.65;;
39400;SDS011;75540;50.000;7.360;2024-03-17T13:02:59;7.25;;;4.07;;
39400;SDS011;75540;50.000;7.360;2024-03-17T13:05:26;11.13;;;4.25;;
39400;SDS011;75540;50.000;7.360;2024-03-17T13:07:54;9.55;;;4.22;;
39400;SDS011;75540;50.000;7.360;2024-03-17T13:10:22;8.43;;;5.03;;
39400;SDS011;75540;50.000;7.360;2024-03-17T13:12:59;8.07;;;4.07;;
39400;SDS011;75540;50.000;7.360;2024-03-17T13:15:27;9.88;;;4.05;;
39400;SDS011;75540;50.000;7.360;2024-03-17T13:17:56;8.30;;;4.43;;
39400;SDS011;75540;50.000;7.360;2024-03-17T13:20:24;8.48;;;4.10;;
39400;SDS011;75540;50.000;7.360;2024-03-17T13:22:51;7.22;;;3.65;;
39400;SDS011;75540;50.000;7.360;2024-03-17T13:25:19;7.97;;;4.30;;
39400;SDS011;75540;50.000;7.360;2024-03-17T13:27:49;11.25;;;4.35;;
39400;SDS011;75540;50.000;7.360;2024-03-17T13:30:18;7.68;;;4.65;;
39400;SDS011;75540;50.000;7.360;2024-03-17T13:32:48;8.95;;;4.35;;
39400;SDS011;75540;50.000;7.360;2024-03-17T13:35:21;7.90;;;4.10;;
39400;SDS011;75540;50.000;7.360;2024-03-17T13:37:50;8.10;;;3.90;;
39400;SDS011;75540;50.000;7.360;2024-03-17T13:40:19;8.15;;;4.38;;
39400;SDS011;75540;50.000;7.360;2024-03-17T13:42:49;8.85;;;3.78;;
39400;SDS011;75540;50.000;7.360;2024-03-17T13:45:19;8.25;;;3.97;;
39400;SDS011;75540;50.000;7.360;2024-03-17T13:47:49;11.38;;;4.28;;
39400;SDS011;75540;50.000;7.360;2024-03-17T13:50:21;9.15;;;4.80;;
39400;SDS011;75540;50.000;7.360;2024-03-17T13:52:48;9.68;;;4.55;;
39400;SDS011;75540;50.000;7.360;2024-03-17T13:55:17;15.57;;;5.85;;
39400;SDS011;75540;50.000;7.360;2024-03-17T13:57:47;10.30;;;4.80;;
39400;SDS011;75540;50.000;7.360;2024-03-17T14:00:19;10.60;;;5.18;;
39400;SDS011;75540;50.000;7.360;2024-03-17T14:02:48;10.90;;;4.55;;
39400;SDS011;75540;50.000;7.360;2024-03-17T14:05:17;11.65;;;5.72;;
39400;SDS011;75540;50.000;7.360;2024-03-17T14:07:45;12.02;;;5.00;;
39400;SDS011;75540;50.000;7.360;2024-03-17T14:10:14;10.20;;;4.75;;
39400;SDS011;75540;50.000;7.360;2024-03-17T14:12:42;9.73;;;4.88;;
39400;SDS011;75540;50.000;7.360;2024-03-17T14:15:13;9.60;;;4.65;;
39400;SDS011;75540;50.000;7.360;2024-03-17T14:17:43;11.32;;;4.68;;
39400;SDS011;75540;50.000;7.360;2024-03-17T14:20:12;7.20;;;3.78;;
39400;SDS011;75540;50.000;7.360;2024-03-17T14:22:41;5.63;;;3.13;;
39400;SDS011;75540;50.000;7.360;2024-03-17T14:25:09;9.00;;;4.53;;
39400;SDS011;75540;50.000;7.360;2024-03-17T14:27:38;8.10;;;4.00;;
39400;SDS011;75540;50.000;7.360;2024-03-17T14:30:05;7.18;;;3.75;;
39400;SDS011;75540;50.000;7.360;2024-03-17T14:32:33;8.25;;;4.18;;
39400;SDS011;75540;50.000;7.360;2024-03-17T14:35:03;8.80;;;4.00;;
39400;SDS011;75540;50.000;7.360;2024-03-17T14:37:31;10.52;;;4.55;;
39400;SDS011;75540;50.000;7.360;2024-03-17T14:39:58;8.15;;;3.95;;
39400;SDS011;75540;50.000;7.360;2024-03-17T14:42:26;6.93;;;3.40;;
39400;SDS011;75540;50.000;7.360;2024-03-17T14:44:56;9.05;;;4.43;;
39400;SDS011;75540;50.000;7.360;2024-03-17T14:47:24;8.57;;;3.53;;
39400;SDS011;75540;50.000;7.360;2024-03-17T14:49:52;8.90;;;4.22;;
39400;SDS011;75540;50.000;7.360;2024-03-17T14:52:21;8.00;;;3.67;;
39400;SDS011;75540;50.000;7.360;2024-03-17T14:54:50;6.25;;;3.40;;
39400;SDS011;75540;50.000;7.360;2024-03-17T14:57:19;7.65;;;3.63;;
39400;SDS011;75540;50.000;7.360;2024-03-17T14:59:47;7.80;;;3.60;;
39400;SDS011;75540;50.000;7.360;2024-03-17T15:02:14;6.75;;;3.17;;
39400;SDS011;75540;50.000;7.360;2024-03-17T15:04:41;8.93;;;3.92;;